sensor_id;sensor_type;location;lat;lon;timestamp;P1;durP1;ratioP1;P2;durP2;ratioP2
17592;SDS011;8915;51.760;14.300;2022-11-20T00:01:19;8.40;;;4.50;;
17592;SDS011;8915;51.760;14.300;2022-11-20T00:03:46;6.83;;;4.70;;
17592;SDS011;8915;51.760;14.300;2022-11-20T00:06:15;6.87;;;4.37;;
17592;SDS011;8915;51.760;14.300;2022-11-20T00:08:42;8.27;;;5.47;;
17592;SDS011;8915;51.760;14.300;2022-11-20T00:11:10;8.40;;;5.00;;
17592;SDS011;8915;51.760;14.300;2022-11-20T00:13:38;9.47;;;6.00;;
17592;SDS011;8915;51.760;14.300;2022-11-20T00:16:05;9.70;;;5.57;;
17592;SDS011;8915;51.760;14.300;2022-11-20T00:18:33;9.33;;;6.00;;
17592;SDS011;8915;51.760;14.300;2022-11-20T00:21:00;12.03;;;6.47;;
17592;SDS011;8915;51.760;14.300;2022-11-20T00:23:28;9.97;;;5.23;;
17592;SDS011;8915;51.760;14.300;2022-11-20T00:25:55;10.10;;;6.23;;
17592;SDS011;8915;51.760;14.300;2022-11-20T00:28:22;9.60;;;6.10;;
17592;SDS011;8915;51.760;14.300;2022-11-20T00:30:48;8.33;;;5.87;;
17592;SDS011;8915;51.760;14.300;2022-11-20T00:33:15;9.57;;;5.83;;
17592;SDS011;8915;51.760;14.300;2022-11-20T00:35:41;11.47;;;6.63;;
17592;SDS011;8915;51.760;14.300;2022-11-20T00:38:07;10.77;;;6.13;;
17592;SDS011;8915;51.760;14.300;2022-11-20T00:40:35;11.30;;;6.53;;
17592;SDS011;8915;51.760;14.300;2022-11-20T00:43:01;11.07;;;6.57;;
17592;SDS011;8915;51.760;14.300;2022-11-20T00:45:28;11.97;;;6.67;;
17592;SDS011;8915;51.760;14.300;2022-11-20T00:47:54;11.30;;;6.40;;
17592;SDS011;8915;51.760;14.300;2022-11-20T00:50:20;10.67;;;6.70;;
17592;SDS011;8915;51.760;14.300;2022-11-20T00:52:46;10.67;;;6.17;;
17592;SDS011;8915;51.760;14.300;2022-11-20T00:55:13;10.00;;;6.27;;
17592;SDS011;8915;51.760;14.300;2022-11-20T00:57:41;11.07;;;6.50;;
17592;SDS011;8915;51.760;14.300;2022-11-20T01:00:07;14.87;;;6.40;;
17592;SDS011;8915;51.760;14.300;2022-11-20T01:02:34;14.23;;;6.83;;
17592;SDS011;8915;51.760;14.300;2022-11-20T01:05:01;10.53;;;6.50;;
17592;SDS011;8915;51.760;14.300;2022-11-20T01:07:29;11.40;;;7.07;;
17592;SDS011;8915;51.760;14.300;2022-11-20T01:09:55;10.43;;;6.03;;
17592;SDS011;8915;51.760;14.300;2022-11-20T01:12:21;11.07;;;6.20;;
17592;SDS011;8915;51.760;14.300;2022-11-20T01:14:49;13.50;;;6.73;;
17592;SDS011;8915;51.760;14.300;2022-11-20T01:17:15;10.23;;;6.17;;
17592;SDS011;8915;51.760;14.300;2022-11-20T01:19:42;11.30;;;7.17;;
17592;SDS011;8915;51.760;14.300;2022-11-20T01:22:09;10.93;;;6.80;;
17592;SDS011;8915;51.760;14.300;2022-11-20T01:24:35;10.93;;;6.20;;
17592;SDS011;8915;51.760;14.300;2022-11-20T01:27:01;9.47;;;6.40;;
17592;SDS011;8915;51.760;14.300;2022-11-20T01:29:28;11.67;;;7.80;;
17592;SDS011;8915;51.760;14.300;2022-11-20T01:31:55;14.17;;;7.10;;
17592;SDS011;8915;51.760;14.300;2022-11-20T01:34:22;12.07;;;6.80;;
17592;SDS011;8915;51.760;14.300;2022-11-20T01:36:49;10.87;;;6.23;;
17592;SDS011;8915;51.760;14.300;2022-11-20T01:39:16;13.47;;;7.20;;
17592;SDS011;8915;51.760;14.300;2022-11-20T01:41:44;10.80;;;6.17;;
17592;SDS011;8915;51.760;14.300;2022-11-20T01:44:46;12.07;;;6.73;;
17592;SDS011;8915;51.760;14.300;2022-11-20T01:47:21;11.27;;;6.67;;
17592;SDS011;8915;51.760;14.300;2022-11-20T01:49:54;12.70;;;6.70;;
17592;SDS011;8915;51.760;14.300;2022-11-20T01:52:26;11.50;;;6.90;;
17592;SDS011;8915;51.760;14.300;2022-11-20T01:54:58;12.03;;;6.93;;
17592;SDS011;8915;51.760;14.300;2022-11-20T01:57:27;12.77;;;6.83;;
17592;SDS011;8915;51.760;14.300;2022-11-20T01:59:59;12.53;;;6.77;;
17592;SDS011;8915;51.760;14.300;2022-11-20T02:02:39;14.43;;;6.97;;
17592;SDS011;8915;51.760;14.300;2022-11-20T02:05:10;10.13;;;6.47;;
17592;SDS011;8915;51.760;14.300;2022-11-20T02:07:40;12.03;;;7.20;;
17592;SDS011;8915;51.760;14.300;2022-11-20T02:10:07;12.60;;;7.70;;
17592;SDS011;8915;51.760;14.300;2022-11-20T02:12:34;13.10;;;7.07;;
17592;SDS011;8915;51.760;14.300;2022-11-20T02:15:18;13.23;;;7.40;;
17592;SDS011;8915;51.760;14.300;2022-11-20T02:17:45;12.47;;;6.97;;
17592;SDS011;8915;51.760;14.300;2022-11-20T02:20:12;12.57;;;7.43;;
17592;SDS011;8915;51.760;14.300;2022-11-20T02:22:40;12.33;;;6.97;;
17592;SDS011;8915;51.760;14.300;2022-11-20T02:25:17;13.33;;;8.33;;
17592;SDS011;8915;51.760;14.300;2022-11-20T02:27:45;12.97;;;7.03;;
17592;SDS011;8915;51.760;14.300;2022-11-20T02:30:12;12.57;;;7.40;;
17592;SDS011;8915;51.760;14.300;2022-11-20T02:32:40;12.40;;;7.53;;
17592;SDS011;8915;51.760;14.300;2022-11-20T02:38:23;10.73;;;7.07;;
17592;SDS011;8915;51.760;14.300;2022-11-20T02:40:51;13.97;;;7.90;;
17592;SDS011;8915;51.760;14.300;2022-11-20T02:43:17;15.97;;;7.97;;
17592;SDS011;8915;51.760;14.300;2022-11-20T02:45:43;13.87;;;8.40;;
17592;SDS011;8915;51.760;14.300;2022-11-20T02:48:10;16.17;;;7.83;;
17592;SDS011;8915;51.760;14.300;2022-11-20T02:50:37;14.73;;;8.23;;
17592;SDS011;8915;51.760;14.300;2022-11-20T02:53:04;13.73;;;8.13;;
17592;SDS011;8915;51.760;14.300;2022-11-20T02:55:30;12.93;;;7.03;;
17592;SDS011;8915;51.760;14.300;2022-11-20T02:57:58;16.03;;;8.37;;
17592;SDS011;8915;51.760;14.300;2022-11-20T03:00:24;13.10;;;7.43;;
17592;SDS011;8915;51.760;14.300;2022-11-20T03:02:51;13.07;;;7.67;;
17592;SDS011;8915;51.760;14.300;2022-11-20T03:05:17;15.10;;;8.17;;
17592;SDS011;8915;51.760;14.300;2022-11-20T03:07:44;13.13;;;8.07;;
17592;SDS011;8915;51.760;14.300;2022-11-20T03:10:10;14.73;;;8.37;;
17592;SDS011;8915;51.760;14.300;2022-11-20T03:12:37;16.87;;;8.73;;
17592;SDS011;8915;51.760;14.300;2022-11-20T03:15:05;15.30;;;7.63;;
17592;SDS011;8915;51.760;14.300;2022-11-20T03:17:32;12.63;;;7.80;;
17592;SDS011;8915;51.760;14.300;2022-11-20T03:19:58;14.77;;;8.13;;
17592;SDS011;8915;51.760;14.300;2022-11-20T03:22:24;15.93;;;8.57;;
17592;SDS011;8915;51.760;14.300;2022-11-20T03:24:51;15.03;;;8.17;;
17592;SDS011;8915;51.760;14.300;2022-11-20T03:27:17;14.50;;;8.20;;
17592;SDS011;8915;51.760;14.300;2022-11-20T03:29:43;14.17;;;8.20;;
17592;SDS011;8915;51.760;14.300;2022-11-20T03:32:11;17.20;;;9.43;;
17592;SDS011;8915;51.760;14.300;2022-11-20T03:34:37;13.40;;;7.87;;
17592;SDS011;8915;51.760;14.300;2022-11-20T03:37:04;12.73;;;7.70;;
17592;SDS011;8915;51.760;14.300;2022-11-20T03:39:30;14.60;;;9.27;;
17592;SDS011;8915;51.760;14.300;2022-11-20T03:41:56;16.27;;;8.37;;
17592;SDS011;8915;51.760;14.300;2022-11-20T03:44:23;16.73;;;8.73;;
17592;SDS011;8915;51.760;14.300;2022-11-20T03:46:49;15.60;;;8.63;;
17592;SDS011;8915;51.760;14.300;2022-11-20T03:49:17;16.43;;;8.97;;
17592;SDS011;8915;51.760;14.300;2022-11-20T03:51:43;16.93;;;8.37;;
17592;SDS011;8915;51.760;14.300;2022-11-20T03:54:10;15.83;;;9.30;;
17592;SDS011;8915;51.760;14.300;2022-11-20T03:56:37;17.50;;;9.13;;
17592;SDS011;8915;51.760;14.300;2022-11-20T03:59:05;17.77;;;8.33;;
17592;SDS011;8915;51.760;14.300;2022-11-20T04:01:32;18.20;;;8.83;;
17592;SDS011;8915;51.760;14.300;2022-11-20T04:04:00;17.80;;;9.30;;
17592;SDS011;8915;51.760;14.300;2022-11-20T04:06:30;18.17;;;9.60;;
17592;SDS011;8915;51.760;14.300;2022-11-20T04:08:59;14.87;;;8.10;;
17592;SDS011;8915;51.760;14.300;2022-11-20T04:11:26;17.93;;;8.80;;
17592;SDS011;8915;51.760;14.300;2022-11-20T04:13:56;12.90;;;7.67;;
17592;SDS011;8915;51.760;14.300;2022-11-20T04:16:24;19.47;;;10.10;;
17592;SDS011;8915;51.760;14.300;2022-11-20T04:18:51;19.90;;;9.40;;
17592;SDS011;8915;51.760;14.300;2022-11-20T04:21:19;17.97;;;9.30;;
17592;SDS011;8915;51.760;14.300;2022-11-20T04:23:46;17.30;;;8.57;;
17592;SDS011;8915;51.760;14.300;2022-11-20T04:26:13;19.70;;;10.10;;
17592;SDS011;8915;51.760;14.300;2022-11-20T04:28:39;17.00;;;9.33;;
17592;SDS011;8915;51.760;14.300;2022-11-20T04:31:06;17.03;;;8.77;;
17592;SDS011;8915;51.760;14.300;2022-11-20T04:33:35;18.23;;;9.60;;
17592;SDS011;8915;51.760;14.300;2022-11-20T04:36:02;19.93;;;9.57;;
17592;SDS011;8915;51.760;14.300;2022-11-20T04:38:31;15.97;;;8.67;;
17592;SDS011;8915;51.760;14.300;2022-11-20T04:40:59;18.00;;;9.07;;
17592;SDS011;8915;51.760;14.300;2022-11-20T04:43:27;15.47;;;8.40;;
17592;SDS011;8915;51.760;14.300;2022-11-20T04:45:54;16.67;;;9.07;;
17592;SDS011;8915;51.760;14.300;2022-11-20T04:48:22;15.80;;;9.20;;
17592;SDS011;8915;51.760;14.300;2022-11-20T04:50:49;15.40;;;8.83;;
17592;SDS011;8915;51.760;14.300;2022-11-20T04:53:16;15.40;;;8.73;;
17592;SDS011;8915;51.760;14.300;2022-11-20T04:55:42;17.90;;;8.93;;
17592;SDS011;8915;51.760;14.300;2022-11-20T04:58:10;20.30;;;9.10;;
17592;SDS011;8915;51.760;14.300;2022-11-20T05:00:37;18.40;;;9.33;;
17592;SDS011;8915;51.760;14.300;2022-11-20T05:03:03;14.67;;;9.23;;
17592;SDS011;8915;51.760;14.300;2022-11-20T05:05:29;18.27;;;8.97;;
17592;SDS011;8915;51.760;14.300;2022-11-20T05:07:56;19.27;;;8.83;;
17592;SDS011;8915;51.760;14.300;2022-11-20T05:10:23;16.63;;;8.90;;
17592;SDS011;8915;51.760;14.300;2022-11-20T05:12:49;16.50;;;8.97;;
17592;SDS011;8915;51.760;14.300;2022-11-20T05:15:17;15.37;;;8.87;;
17592;SDS011;8915;51.760;14.300;2022-11-20T05:17:46;16.53;;;9.40;;
17592;SDS011;8915;51.760;14.300;2022-11-20T05:20:13;17.10;;;9.93;;
17592;SDS011;8915;51.760;14.300;2022-11-20T05:22:39;19.23;;;9.63;;
17592;SDS011;8915;51.760;14.300;2022-11-20T05:25:06;16.77;;;9.43;;
17592;SDS011;8915;51.760;14.300;2022-11-20T05:27:33;17.50;;;8.93;;
17592;SDS011;8915;51.760;14.300;2022-11-20T05:29:59;16.90;;;8.87;;
17592;SDS011;8915;51.760;14.300;2022-11-20T05:32:28;16.60;;;8.67;;
17592;SDS011;8915;51.760;14.300;2022-11-20T05:34:54;14.73;;;8.00;;
17592;SDS011;8915;51.760;14.300;2022-11-20T05:37:20;16.40;;;8.60;;
17592;SDS011;8915;51.760;14.300;2022-11-20T05:39:47;15.70;;;9.30;;
17592;SDS011;8915;51.760;14.300;2022-11-20T05:42:13;17.13;;;10.07;;
17592;SDS011;8915;51.760;14.300;2022-11-20T05:44:58;17.80;;;9.27;;
17592;SDS011;8915;51.760;14.300;2022-11-20T05:47:25;15.80;;;8.43;;
17592;SDS011;8915;51.760;14.300;2022-11-20T05:49:52;18.20;;;8.67;;
17592;SDS011;8915;51.760;14.300;2022-11-20T05:52:19;18.00;;;9.50;;
17592;SDS011;8915;51.760;14.300;2022-11-20T05:54:45;16.13;;;9.37;;
17592;SDS011;8915;51.760;14.300;2022-11-20T05:57:12;17.53;;;8.80;;
17592;SDS011;8915;51.760;14.300;2022-11-20T05:59:38;14.67;;;8.33;;
17592;SDS011;8915;51.760;14.300;2022-11-20T06:02:04;19.00;;;9.77;;
17592;SDS011;8915;51.760;14.300;2022-11-20T06:04:31;18.33;;;9.53;;
17592;SDS011;8915;51.760;14.300;2022-11-20T06:06:58;15.73;;;8.73;;
17592;SDS011;8915;51.760;14.300;2022-11-20T06:09:25;15.00;;;9.20;;
17592;SDS011;8915;51.760;14.300;2022-11-20T06:11:51;20.97;;;9.80;;
17592;SDS011;8915;51.760;14.300;2022-11-20T06:14:17;21.47;;;10.87;;
17592;SDS011;8915;51.760;14.300;2022-11-20T06:16:44;24.23;;;12.00;;
17592;SDS011;8915;51.760;14.300;2022-11-20T06:19:10;24.57;;;12.40;;
17592;SDS011;8915;51.760;14.300;2022-11-20T06:21:36;22.43;;;12.03;;
17592;SDS011;8915;51.760;14.300;2022-11-20T06:24:04;19.50;;;11.60;;
17592;SDS011;8915;51.760;14.300;2022-11-20T06:26:31;17.30;;;9.87;;
17592;SDS011;8915;51.760;14.300;2022-11-20T06:28:57;16.60;;;9.60;;
17592;SDS011;8915;51.760;14.300;2022-11-20T06:31:25;18.53;;;9.57;;
17592;SDS011;8915;51.760;14.300;2022-11-20T06:33:52;19.47;;;10.17;;
17592;SDS011;8915;51.760;14.300;2022-11-20T06:36:19;20.43;;;9.23;;
17592;SDS011;8915;51.760;14.300;2022-11-20T06:38:47;26.70;;;12.20;;
17592;SDS011;8915;51.760;14.300;2022-11-20T06:41:16;31.30;;;13.47;;
17592;SDS011;8915;51.760;14.300;2022-11-20T06:43:44;27.60;;;12.97;;
17592;SDS011;8915;51.760;14.300;2022-11-20T06:46:11;26.87;;;12.70;;
17592;SDS011;8915;51.760;14.300;2022-11-20T06:48:39;27.30;;;13.70;;
17592;SDS011;8915;51.760;14.300;2022-11-20T06:51:06;25.47;;;12.43;;
17592;SDS011;8915;51.760;14.300;2022-11-20T06:53:33;21.70;;;11.17;;
17592;SDS011;8915;51.760;14.300;2022-11-20T06:56:00;22.57;;;11.30;;
17592;SDS011;8915;51.760;14.300;2022-11-20T06:58:28;26.23;;;12.40;;
17592;SDS011;8915;51.760;14.300;2022-11-20T07:00:57;18.47;;;10.07;;
17592;SDS011;8915;51.760;14.300;2022-11-20T07:03:24;18.50;;;10.83;;
17592;SDS011;8915;51.760;14.300;2022-11-20T07:05:50;21.77;;;11.40;;
17592;SDS011;8915;51.760;14.300;2022-11-20T07:08:16;21.53;;;10.00;;
17592;SDS011;8915;51.760;14.300;2022-11-20T07:10:43;15.07;;;9.27;;
17592;SDS011;8915;51.760;14.300;2022-11-20T07:13:09;18.53;;;10.57;;
17592;SDS011;8915;51.760;14.300;2022-11-20T07:15:37;18.73;;;9.80;;
17592;SDS011;8915;51.760;14.300;2022-11-20T07:18:03;19.20;;;10.53;;
17592;SDS011;8915;51.760;14.300;2022-11-20T07:20:29;18.90;;;9.87;;
17592;SDS011;8915;51.760;14.300;2022-11-20T07:22:56;20.60;;;9.80;;
17592;SDS011;8915;51.760;14.300;2022-11-20T07:25:23;17.87;;;10.03;;
17592;SDS011;8915;51.760;14.300;2022-11-20T07:27:50;24.53;;;10.83;;
17592;SDS011;8915;51.760;14.300;2022-11-20T07:30:16;17.90;;;10.30;;
17592;SDS011;8915;51.760;14.300;2022-11-20T07:32:47;26.03;;;11.87;;
17592;SDS011;8915;51.760;14.300;2022-11-20T07:35:16;21.57;;;10.87;;
17592;SDS011;8915;51.760;14.300;2022-11-20T07:37:42;18.67;;;9.30;;
17592;SDS011;8915;51.760;14.300;2022-11-20T07:42:38;23.43;;;11.23;;
17592;SDS011;8915;51.760;14.300;2022-11-20T07:45:05;24.50;;;11.43;;
17592;SDS011;8915;51.760;14.300;2022-11-20T07:47:34;23.93;;;10.77;;
17592;SDS011;8915;51.760;14.300;2022-11-20T07:50:02;20.53;;;9.80;;
17592;SDS011;8915;51.760;14.300;2022-11-20T07:52:29;18.80;;;10.53;;
17592;SDS011;8915;51.760;14.300;2022-11-20T07:54:55;18.03;;;9.93;;
17592;SDS011;8915;51.760;14.300;2022-11-20T07:57:22;19.67;;;10.00;;
17592;SDS011;8915;51.760;14.300;2022-11-20T07:59:48;18.57;;;9.93;;
17592;SDS011;8915;51.760;14.300;2022-11-20T08:02:14;23.20;;;10.17;;
17592;SDS011;8915;51.760;14.300;2022-11-20T08:04:41;23.23;;;10.17;;
17592;SDS011;8915;51.760;14.300;2022-11-20T08:07:08;17.80;;;9.47;;
17592;SDS011;8915;51.760;14.300;2022-11-20T08:09:35;16.07;;;8.90;;
17592;SDS011;8915;51.760;14.300;2022-11-20T08:12:01;16.77;;;9.83;;
17592;SDS011;8915;51.760;14.300;2022-11-20T08:14:45;23.57;;;11.37;;
17592;SDS011;8915;51.760;14.300;2022-11-20T08:17:11;24.70;;;12.17;;
17592;SDS011;8915;51.760;14.300;2022-11-20T08:19:38;18.90;;;9.53;;
17592;SDS011;8915;51.760;14.300;2022-11-20T08:22:04;22.20;;;10.77;;
17592;SDS011;8915;51.760;14.300;2022-11-20T08:24:32;21.43;;;10.20;;
17592;SDS011;8915;51.760;14.300;2022-11-20T08:26:58;19.37;;;10.20;;
17592;SDS011;8915;51.760;14.300;2022-11-20T08:29:25;17.93;;;10.50;;
17592;SDS011;8915;51.760;14.300;2022-11-20T08:31:52;17.80;;;9.87;;
17592;SDS011;8915;51.760;14.300;2022-11-20T08:34:18;18.40;;;9.20;;
17592;SDS011;8915;51.760;14.300;2022-11-20T08:36:44;19.53;;;9.30;;
17592;SDS011;8915;51.760;14.300;2022-11-20T08:39:11;18.97;;;9.60;;
17592;SDS011;8915;51.760;14.300;2022-11-20T08:41:39;19.50;;;10.17;;
17592;SDS011;8915;51.760;14.300;2022-11-20T08:44:06;16.77;;;9.57;;
17592;SDS011;8915;51.760;14.300;2022-11-20T08:46:34;15.67;;;9.57;;
17592;SDS011;8915;51.760;14.300;2022-11-20T08:49:02;18.17;;;8.73;;
17592;SDS011;8915;51.760;14.300;2022-11-20T08:51:28;22.70;;;10.07;;
17592;SDS011;8915;51.760;14.300;2022-11-20T08:53:55;18.20;;;10.13;;
17592;SDS011;8915;51.760;14.300;2022-11-20T08:56:21;16.63;;;9.20;;
17592;SDS011;8915;51.760;14.300;2022-11-20T08:58:49;15.47;;;8.83;;
17592;SDS011;8915;51.760;14.300;2022-11-20T09:01:16;19.53;;;9.70;;
17592;SDS011;8915;51.760;14.300;2022-11-20T09:03:42;18.13;;;9.17;;
17592;SDS011;8915;51.760;14.300;2022-11-20T09:06:09;18.10;;;9.20;;
17592;SDS011;8915;51.760;14.300;2022-11-20T09:08:35;16.80;;;9.10;;
17592;SDS011;8915;51.760;14.300;2022-11-20T09:11:02;16.97;;;8.63;;
17592;SDS011;8915;51.760;14.300;2022-11-20T09:13:29;17.97;;;9.63;;
17592;SDS011;8915;51.760;14.300;2022-11-20T09:15:58;21.97;;;10.40;;
17592;SDS011;8915;51.760;14.300;2022-11-20T09:18:28;21.13;;;12.03;;
17592;SDS011;8915;51.760;14.300;2022-11-20T09:20:56;15.27;;;9.00;;
17592;SDS011;8915;51.760;14.300;2022-11-20T09:23:23;15.87;;;8.07;;
17592;SDS011;8915;51.760;14.300;2022-11-20T09:25:50;15.70;;;9.37;;
17592;SDS011;8915;51.760;14.300;2022-11-20T09:28:17;15.67;;;8.17;;
17592;SDS011;8915;51.760;14.300;2022-11-20T09:30:44;17.13;;;9.07;;
17592;SDS011;8915;51.760;14.300;2022-11-20T09:33:12;16.20;;;8.53;;
17592;SDS011;8915;51.760;14.300;2022-11-20T09:35:38;14.23;;;7.60;;
17592;SDS011;8915;51.760;14.300;2022-11-20T09:38:05;16.20;;;8.43;;
17592;SDS011;8915;51.760;14.300;2022-11-20T09:40:32;14.90;;;8.13;;
17592;SDS011;8915;51.760;14.300;2022-11-20T09:43:02;13.00;;;7.93;;
17592;SDS011;8915;51.760;14.300;2022-11-20T09:45:46;13.43;;;7.80;;
17592;SDS011;8915;51.760;14.300;2022-11-20T09:48:29;14.10;;;7.77;;
17592;SDS011;8915;51.760;14.300;2022-11-20T09:51:05;15.13;;;8.40;;
17592;SDS011;8915;51.760;14.300;2022-11-20T09:53:42;17.77;;;8.77;;
17592;SDS011;8915;51.760;14.300;2022-11-20T09:56:19;14.70;;;8.23;;
17592;SDS011;8915;51.760;14.300;2022-11-20T09:58:47;14.07;;;8.07;;
17592;SDS011;8915;51.760;14.300;2022-11-20T10:01:16;16.77;;;8.30;;
17592;SDS011;8915;51.760;14.300;2022-11-20T10:03:49;12.93;;;6.93;;
17592;SDS011;8915;51.760;14.300;2022-11-20T10:06:21;14.97;;;8.57;;
17592;SDS011;8915;51.760;14.300;2022-11-20T10:08:55;13.83;;;7.37;;
17592;SDS011;8915;51.760;14.300;2022-11-20T10:11:30;15.10;;;7.57;;
17592;SDS011;8915;51.760;14.300;2022-11-20T10:14:05;18.67;;;8.57;;
17592;SDS011;8915;51.760;14.300;2022-11-20T10:16:41;11.90;;;6.33;;
17592;SDS011;8915;51.760;14.300;2022-11-20T10:19:24;15.77;;;7.97;;
17592;SDS011;8915;51.760;14.300;2022-11-20T10:22:00;12.27;;;7.03;;
17592;SDS011;8915;51.760;14.300;2022-11-20T10:24:41;18.07;;;7.53;;
17592;SDS011;8915;51.760;14.300;2022-11-20T10:27:16;14.40;;;7.73;;
17592;SDS011;8915;51.760;14.300;2022-11-20T10:29:59;11.57;;;6.50;;
17592;SDS011;8915;51.760;14.300;2022-11-20T10:32:28;13.00;;;7.40;;
17592;SDS011;8915;51.760;14.300;2022-11-20T10:35:03;12.90;;;6.97;;
17592;SDS011;8915;51.760;14.300;2022-11-20T10:37:34;10.70;;;5.93;;
17592;SDS011;8915;51.760;14.300;2022-11-20T10:40:11;11.83;;;6.13;;
17592;SDS011;8915;51.760;14.300;2022-11-20T10:42:49;10.17;;;5.83;;
17592;SDS011;8915;51.760;14.300;2022-11-20T10:45:22;13.47;;;6.80;;
17592;SDS011;8915;51.760;14.300;2022-11-20T10:48:04;11.87;;;6.30;;
17592;SDS011;8915;51.760;14.300;2022-11-20T10:50:40;10.10;;;5.60;;
17592;SDS011;8915;51.760;14.300;2022-11-20T10:53:16;10.43;;;6.03;;
17592;SDS011;8915;51.760;14.300;2022-11-20T10:55:53;12.97;;;6.40;;
17592;SDS011;8915;51.760;14.300;2022-11-20T10:58:25;10.90;;;5.50;;
17592;SDS011;8915;51.760;14.300;2022-11-20T11:01:05;10.50;;;5.50;;
17592;SDS011;8915;51.760;14.300;2022-11-20T11:03:39;11.10;;;6.47;;
17592;SDS011;8915;51.760;14.300;2022-11-20T11:06:10;12.97;;;5.83;;
17592;SDS011;8915;51.760;14.300;2022-11-20T11:08:43;14.60;;;7.40;;
17592;SDS011;8915;51.760;14.300;2022-11-20T11:11:15;12.90;;;6.97;;
17592;SDS011;8915;51.760;14.300;2022-11-20T11:13:47;11.83;;;6.50;;
17592;SDS011;8915;51.760;14.300;2022-11-20T11:16:19;12.87;;;7.13;;
17592;SDS011;8915;51.760;14.300;2022-11-20T11:18:48;12.73;;;7.17;;
17592;SDS011;8915;51.760;14.300;2022-11-20T11:21:20;12.13;;;6.90;;
17592;SDS011;8915;51.760;14.300;2022-11-20T11:23:56;13.07;;;7.37;;
17592;SDS011;8915;51.760;14.300;2022-11-20T11:26:24;12.40;;;6.80;;
17592;SDS011;8915;51.760;14.300;2022-11-20T11:28:54;12.83;;;7.37;;
17592;SDS011;8915;51.760;14.300;2022-11-20T11:31:22;11.93;;;6.90;;
17592;SDS011;8915;51.760;14.300;2022-11-20T11:33:49;11.57;;;6.80;;
17592;SDS011;8915;51.760;14.300;2022-11-20T11:36:16;14.50;;;8.13;;
17592;SDS011;8915;51.760;14.300;2022-11-20T11:38:48;14.80;;;9.27;;
17592;SDS011;8915;51.760;14.300;2022-11-20T11:41:19;14.10;;;7.60;;
17592;SDS011;8915;51.760;14.300;2022-11-20T11:43:51;11.10;;;6.63;;
17592;SDS011;8915;51.760;14.300;2022-11-20T11:46:37;12.33;;;7.07;;
17592;SDS011;8915;51.760;14.300;2022-11-20T11:49:13;12.17;;;6.60;;
17592;SDS011;8915;51.760;14.300;2022-11-20T11:51:45;10.83;;;6.50;;
17592;SDS011;8915;51.760;14.300;2022-11-20T11:54:25;12.53;;;6.77;;
17592;SDS011;8915;51.760;14.300;2022-11-20T11:56:58;10.30;;;6.13;;
17592;SDS011;8915;51.760;14.300;2022-11-20T11:59:39;11.83;;;6.83;;
17592;SDS011;8915;51.760;14.300;2022-11-20T12:02:15;9.10;;;5.40;;
17592;SDS011;8915;51.760;14.300;2022-11-20T12:04:57;12.70;;;6.33;;
17592;SDS011;8915;51.760;14.300;2022-11-20T12:07:30;13.40;;;6.73;;
17592;SDS011;8915;51.760;14.300;2022-11-20T12:10:08;12.23;;;7.37;;
17592;SDS011;8915;51.760;14.300;2022-11-20T12:12:42;11.97;;;6.27;;
17592;SDS011;8915;51.760;14.300;2022-11-20T12:15:11;13.40;;;6.67;;
17592;SDS011;8915;51.760;14.300;2022-11-20T12:17:42;10.37;;;5.63;;
17592;SDS011;8915;51.760;14.300;2022-11-20T12:20:11;10.40;;;6.10;;
17592;SDS011;8915;51.760;14.300;2022-11-20T12:22:40;9.43;;;5.50;;
17592;SDS011;8915;51.760;14.300;2022-11-20T12:25:18;9.27;;;5.70;;
17592;SDS011;8915;51.760;14.300;2022-11-20T12:28:03;11.60;;;6.03;;
17592;SDS011;8915;51.760;14.300;2022-11-20T12:30:41;11.07;;;5.93;;
17592;SDS011;8915;51.760;14.300;2022-11-20T12:33:20;8.90;;;5.23;;
17592;SDS011;8915;51.760;14.300;2022-11-20T12:36:14;7.97;;;4.97;;
17592;SDS011;8915;51.760;14.300;2022-11-20T12:38:51;12.03;;;5.70;;
17592;SDS011;8915;51.760;14.300;2022-11-20T12:41:36;12.10;;;5.07;;
17592;SDS011;8915;51.760;14.300;2022-11-20T12:44:33;9.70;;;5.10;;
17592;SDS011;8915;51.760;14.300;2022-11-20T12:47:31;10.23;;;5.50;;
17592;SDS011;8915;51.760;14.300;2022-11-20T12:50:05;10.00;;;5.37;;
17592;SDS011;8915;51.760;14.300;2022-11-20T12:52:42;9.17;;;5.30;;
17592;SDS011;8915;51.760;14.300;2022-11-20T12:55:16;9.77;;;5.90;;
17592;SDS011;8915;51.760;14.300;2022-11-20T12:57:53;10.10;;;5.60;;
17592;SDS011;8915;51.760;14.300;2022-11-20T13:00:23;12.47;;;5.83;;
17592;SDS011;8915;51.760;14.300;2022-11-20T13:05:59;10.33;;;6.13;;
17592;SDS011;8915;51.760;14.300;2022-11-20T13:08:33;12.43;;;6.37;;
17592;SDS011;8915;51.760;14.300;2022-11-20T13:11:02;12.90;;;6.50;;
17592;SDS011;8915;51.760;14.300;2022-11-20T13:13:40;11.50;;;6.03;;
17592;SDS011;8915;51.760;14.300;2022-11-20T13:16:13;11.63;;;6.07;;
17592;SDS011;8915;51.760;14.300;2022-11-20T13:18:45;10.50;;;5.73;;
17592;SDS011;8915;51.760;14.300;2022-11-20T13:21:13;13.57;;;6.37;;
17592;SDS011;8915;51.760;14.300;2022-11-20T13:23:43;12.70;;;6.33;;
17592;SDS011;8915;51.760;14.300;2022-11-20T13:26:17;12.17;;;6.30;;
17592;SDS011;8915;51.760;14.300;2022-11-20T13:28:58;14.47;;;7.83;;
17592;SDS011;8915;51.760;14.300;2022-11-20T13:31:29;13.37;;;6.57;;
17592;SDS011;8915;51.760;14.300;2022-11-20T13:33:57;12.77;;;7.20;;
17592;SDS011;8915;51.760;14.300;2022-11-20T13:36:27;11.67;;;6.37;;
17592;SDS011;8915;51.760;14.300;2022-11-20T13:38:55;11.20;;;6.57;;
17592;SDS011;8915;51.760;14.300;2022-11-20T13:41:23;12.03;;;6.40;;
17592;SDS011;8915;51.760;14.300;2022-11-20T13:43:57;13.53;;;6.73;;
17592;SDS011;8915;51.760;14.300;2022-11-20T13:46:34;14.23;;;7.50;;
17592;SDS011;8915;51.760;14.300;2022-11-20T13:49:05;12.13;;;6.90;;
17592;SDS011;8915;51.760;14.300;2022-11-20T13:51:35;15.47;;;7.07;;
17592;SDS011;8915;51.760;14.300;2022-11-20T13:54:22;13.33;;;7.17;;
17592;SDS011;8915;51.760;14.300;2022-11-20T13:57:07;11.43;;;6.10;;
17592;SDS011;8915;51.760;14.300;2022-11-20T14:00:02;9.23;;;5.40;;
17592;SDS011;8915;51.760;14.300;2022-11-20T14:02:39;11.00;;;5.40;;
17592;SDS011;8915;51.760;14.300;2022-11-20T14:05:11;11.27;;;5.73;;
17592;SDS011;8915;51.760;14.300;2022-11-20T14:07:46;10.17;;;5.70;;
17592;SDS011;8915;51.760;14.300;2022-11-20T14:10:20;11.13;;;5.63;;
17592;SDS011;8915;51.760;14.300;2022-11-20T14:12:49;10.17;;;5.40;;
17592;SDS011;8915;51.760;14.300;2022-11-20T14:15:25;9.77;;;5.27;;
17592;SDS011;8915;51.760;14.300;2022-11-20T14:17:53;10.93;;;5.23;;
17592;SDS011;8915;51.760;14.300;2022-11-20T14:20:19;9.97;;;5.10;;
17592;SDS011;8915;51.760;14.300;2022-11-20T14:22:50;15.97;;;6.17;;
17592;SDS011;8915;51.760;14.300;2022-11-20T14:25:19;9.50;;;5.30;;
17592;SDS011;8915;51.760;14.300;2022-11-20T14:27:50;9.87;;;5.33;;
17592;SDS011;8915;51.760;14.300;2022-11-20T14:30:19;10.63;;;5.30;;
17592;SDS011;8915;51.760;14.300;2022-11-20T14:32:49;10.47;;;5.20;;
17592;SDS011;8915;51.760;14.300;2022-11-20T14:35:18;14.10;;;6.67;;
17592;SDS011;8915;51.760;14.300;2022-11-20T14:37:47;9.67;;;5.53;;
17592;SDS011;8915;51.760;14.300;2022-11-20T14:40:24;10.50;;;5.37;;
17592;SDS011;8915;51.760;14.300;2022-11-20T14:42:54;12.50;;;5.43;;
17592;SDS011;8915;51.760;14.300;2022-11-20T14:45:21;9.47;;;5.77;;
17592;SDS011;8915;51.760;14.300;2022-11-20T14:47:50;13.10;;;6.43;;
17592;SDS011;8915;51.760;14.300;2022-11-20T14:50:19;11.30;;;6.03;;
17592;SDS011;8915;51.760;14.300;2022-11-20T14:52:51;10.73;;;6.13;;
17592;SDS011;8915;51.760;14.300;2022-11-20T14:55:26;13.27;;;5.83;;
17592;SDS011;8915;51.760;14.300;2022-11-20T14:57:54;11.67;;;5.53;;